createdAt,value
2019-02-12T14:28:40.612Z,787.00
2019-02-12T14:29:41.941Z,786.00
2019-02-12T14:30:42.537Z,787.00
2019-02-12T14:31:43.125Z,787.00
2019-02-12T14:32:43.575Z,787.00
2019-02-12T14:33:44.483Z,787.00
2019-02-12T14:34:45.267Z,787.00
2019-02-12T14:35:45.213Z,785.00
2019-02-12T14:36:47.088Z,786.00
2019-02-12T14:37:47.700Z,785.00
2019-02-12T14:38:50.701Z,785.00
2019-02-12T14:39:47.900Z,786.00
2019-02-12T14:40:49.844Z,784.00
2019-02-12T14:41:50.446Z,785.00
2019-02-12T14:42:51.007Z,784.00
2019-02-12T14:43:51.730Z,785.00
2019-02-12T14:44:52.561Z,785.00
2019-02-12T14:45:52.221Z,785.00
2019-02-12T14:46:53.721Z,784.00
2019-02-12T14:47:54.266Z,786.00
2019-02-12T14:48:55.160Z,786.00
2019-02-12T14:49:55.613Z,785.00
2019-02-12T14:50:55.676Z,786.00
2019-02-12T14:51:56.446Z,787.00
2019-02-12T14:52:58.951Z,785.00
2019-02-12T14:53:56.336Z,785.00
2019-02-12T14:54:57.574Z,784.00
2019-02-12T14:55:58.501Z,784.00
2019-02-12T14:56:59.352Z,783.00
2019-02-12T14:58:00.328Z,785.00
2019-02-12T14:59:00.903Z,784.00
2019-02-12T15:00:01.680Z,783.00
2019-02-12T15:01:02.395Z,783.00
2019-02-12T15:02:03.216Z,782.00
2019-02-12T15:03:03.791Z,783.00
2019-02-12T15:04:04.028Z,783.00
2019-02-12T15:05:04.484Z,786.00
2019-02-12T15:06:04.871Z,786.00
2019-02-12T15:07:05.457Z,785.00
2019-02-12T15:08:06.178Z,786.00
2019-02-12T15:09:06.942Z,785.00
2019-02-12T15:10:07.546Z,783.00
2019-02-12T15:11:08.365Z,785.00
2019-02-12T15:12:08.969Z,783.00
2019-02-12T15:13:09.581Z,786.00
2019-02-12T15:13:18.632Z,786.00
2019-02-12T15:14:20.058Z,785.00
2019-02-12T15:15:20.130Z,784.00
2019-02-12T15:16:20.484Z,783.00
2019-02-12T15:17:20.655Z,783.00
2019-02-12T15:18:20.215Z,784.00
2019-02-12T15:19:21.941Z,783.00
2019-02-12T15:20:22.787Z,784.00
2019-02-12T15:21:23.441Z,786.00
2019-02-12T15:22:23.890Z,785.00
2019-02-12T15:23:24.607Z,785.00
2019-02-12T15:24:25.504Z,784.00
2019-02-12T15:25:26.419Z,784.00
2019-02-12T15:26:27.027Z,783.00
2019-02-12T15:27:27.553Z,783.00
2019-02-12T15:28:28.200Z,784.00
2019-02-12T15:29:28.759Z,785.00
2019-02-12T15:30:29.685Z,785.00
2019-02-12T15:31:30.412Z,784.00
2019-02-12T15:32:31.265Z,784.00
2019-02-12T15:33:32.039Z,784.00
2019-02-12T15:34:32.816Z,785.00
2019-02-12T15:35:33.076Z,784.00
2019-02-12T15:36:34.040Z,784.00
2019-02-12T15:37:34.315Z,785.00
2019-02-12T15:38:34.892Z,785.00
2019-02-12T15:39:36.507Z,784.00
2019-02-12T15:40:36.030Z,785.00
2019-02-12T15:41:36.778Z,784.00
2019-02-12T15:42:37.493Z,786.00
2019-02-12T15:43:38.005Z,786.00
2019-02-12T15:44:38.661Z,785.00
2019-02-12T15:45:39.425Z,785.00
2019-02-12T15:46:40.155Z,784.00
2019-02-12T15:47:40.623Z,785.00
2019-02-12T15:48:41.244Z,784.00
2019-02-12T15:49:41.781Z,785.00
2019-02-12T15:50:41.938Z,785.00
2019-02-12T15:51:42.153Z,785.00
2019-02-12T15:52:42.866Z,784.00
2019-02-12T15:53:43.629Z,783.00
2019-02-12T15:54:44.238Z,784.00
2019-02-12T15:55:51.218Z,786.00
2019-02-12T15:56:44.942Z,787.00
2019-02-12T15:57:46.123Z,787.00
2019-02-12T15:58:45.509Z,787.00
2019-02-12T15:59:47.303Z,787.00
2019-02-12T16:00:48.003Z,787.00
2019-02-12T16:00:58.552Z,787.00
2019-02-12T16:02:00.138Z,787.00
2019-02-12T16:03:00.923Z,787.00
2019-02-12T16:04:01.011Z,788.00
2019-02-12T16:05:01.667Z,787.00
2019-02-12T16:06:02.388Z,792.00
2019-02-12T16:07:02.571Z,788.00
2019-02-12T16:08:05.104Z,788.00
2019-02-12T16:09:02.758Z,788.00
2019-02-12T16:10:04.350Z,787.00
2019-02-12T16:11:04.153Z,788.00
2019-02-12T16:12:06.198Z,787.00
2019-02-12T16:13:05.846Z,787.00
2019-02-12T16:14:06.966Z,787.00
2019-02-12T16:15:07.822Z,790.00
2019-02-12T16:16:09.912Z,793.00
2019-02-12T16:17:08.343Z,792.00
2019-02-12T16:18:10.315Z,788.00
2019-02-12T16:19:11.041Z,788.00
2019-02-12T16:20:11.918Z,788.00
2019-02-12T16:21:14.886Z,788.00
2019-02-12T16:22:12.211Z,787.00
2019-02-12T16:23:13.798Z,787.00
2019-02-12T16:24:14.390Z,789.00
2019-02-12T16:25:15.465Z,788.00
2019-02-12T16:26:14.680Z,788.00
2019-02-12T16:27:16.481Z,788.00
2019-02-12T16:28:16.882Z,789.00
2019-02-12T16:29:16.961Z,788.00
2019-02-12T16:30:25.408Z,792.00
2019-02-12T16:31:18.602Z,789.00
2019-02-12T16:32:17.870Z,792.00
2019-02-12T16:33:18.886Z,792.00
2019-02-12T16:34:19.392Z,789.00
2019-02-12T16:35:20.146Z,788.00
2019-02-12T16:36:20.828Z,787.00
2019-02-12T16:37:21.531Z,788.00
2019-02-12T16:38:21.560Z,788.00
2019-02-12T16:39:22.401Z,789.00
2019-02-12T16:40:23.399Z,793.00
2019-02-12T16:41:22.631Z,793.00
2019-02-12T16:42:24.453Z,792.00
2019-02-12T16:43:25.269Z,792.00
2019-02-12T16:44:25.823Z,790.00
2019-02-12T16:45:26.347Z,788.00
2019-02-12T16:46:27.002Z,792.00
2019-02-12T16:47:27.684Z,790.00
2019-02-12T16:48:27.178Z,788.00
2019-02-12T16:49:28.879Z,788.00
2019-02-12T16:50:29.550Z,788.00
2019-02-12T16:51:30.186Z,792.00
2019-02-12T16:51:39.220Z,793.00
2019-02-12T16:52:40.930Z,795.00
2019-02-12T16:53:40.907Z,795.00
2019-02-12T16:54:41.499Z,795.00
2019-02-12T16:55:42.103Z,795.00
2019-02-12T16:56:42.337Z,793.00
2019-02-12T16:57:43.321Z,793.00
2019-02-12T16:58:44.010Z,793.00
2019-02-12T16:59:44.902Z,792.00
2019-02-12T17:00:45.403Z,790.00
2019-02-12T17:01:45.735Z,794.00
2019-02-12T17:02:46.773Z,793.00
2019-02-12T17:03:46.280Z,793.00
2019-02-12T17:04:47.714Z,792.00
2019-02-12T17:05:48.557Z,792.00
2019-02-12T17:06:49.175Z,792.00
2019-02-12T17:07:49.946Z,792.00
2019-02-12T17:08:50.705Z,793.00
2019-02-12T17:09:52.528Z,792.00
2019-02-12T17:10:50.461Z,793.00
2019-02-12T17:11:51.947Z,790.00
2019-02-12T17:12:52.652Z,793.00
2019-02-12T17:13:53.447Z,792.00
2019-02-12T17:14:54.215Z,793.00
2019-02-12T17:15:54.883Z,794.00
2019-02-12T17:16:55.010Z,793.00
2019-02-12T17:17:55.215Z,793.00
2019-02-12T17:18:55.904Z,793.00
2019-02-12T17:19:56.756Z,793.00
2019-02-12T17:20:57.085Z,794.00
2019-02-12T17:21:57.815Z,794.00
2019-02-12T17:22:58.584Z,794.00
2019-02-12T17:23:58.894Z,793.00
2019-02-12T17:25:01.922Z,794.00
2019-02-12T17:25:58.450Z,794.00
2019-02-12T17:26:59.924Z,793.00
2019-02-12T17:28:00.715Z,793.00
2019-02-12T17:29:00.452Z,794.00
2019-02-12T17:30:01.964Z,795.00
2019-02-12T17:31:02.029Z,796.00
2019-02-12T17:32:02.718Z,796.00
2019-02-12T17:33:03.336Z,796.00
2019-02-12T17:34:04.021Z,796.00
2019-02-12T17:35:04.923Z,796.00
2019-02-12T17:36:05.929Z,794.00
2019-02-12T17:37:06.568Z,794.00
2019-02-12T17:38:06.614Z,794.00
2019-02-12T17:39:07.242Z,797.00
2019-02-12T17:39:16.312Z,796.00
2019-02-12T17:40:17.901Z,795.00
2019-02-12T17:41:18.660Z,795.00
2019-02-12T17:42:19.170Z,795.00
2019-02-12T17:43:19.906Z,794.00
2019-02-12T17:44:20.898Z,795.00
2019-02-12T17:45:21.679Z,795.00
2019-02-12T17:46:22.333Z,795.00
2019-02-12T17:47:23.067Z,795.00
2019-02-12T17:48:22.893Z,795.00
2019-02-12T17:49:24.508Z,794.00
2019-02-12T17:50:24.109Z,795.00
2019-02-12T17:51:26.050Z,794.00
2019-02-12T17:52:26.758Z,796.00
2019-02-12T17:53:27.324Z,796.00
2019-02-12T17:54:27.927Z,796.00
2019-02-12T17:55:27.438Z,796.00
2019-02-12T17:56:29.090Z,798.00
2019-02-12T17:57:29.522Z,795.00
2019-02-12T17:58:30.017Z,795.00
2019-02-12T17:59:30.771Z,795.00
2019-02-12T18:00:31.389Z,794.00
2019-02-12T18:01:32.044Z,795.00
2019-02-12T18:02:32.554Z,795.00
2019-02-12T18:03:33.233Z,795.00
2019-02-12T18:04:33.826Z,795.00
2019-02-12T18:05:34.535Z,795.00
2019-02-12T18:06:35.452Z,797.00
2019-02-12T18:07:36.163Z,796.00
2019-02-12T18:08:37.052Z,796.00
2019-02-12T18:09:37.691Z,795.00
2019-02-12T18:10:38.182Z,796.00
2019-02-12T18:11:39.473Z,796.00
2019-02-12T18:12:41.707Z,796.00
2019-02-12T18:13:40.650Z,795.00
2019-02-12T18:14:39.540Z,796.00
2019-02-12T18:15:41.039Z,795.00
2019-02-12T18:16:41.894Z,795.00
2019-02-12T18:17:42.414Z,796.00
2019-02-12T18:18:42.284Z,795.00
2019-02-12T18:19:44.088Z,794.00
2019-02-12T18:20:43.983Z,794.00
2019-02-12T18:21:44.443Z,795.00
2019-02-12T18:22:44.973Z,794.00
2019-02-12T18:23:46.837Z,795.00
2019-02-12T18:24:48.670Z,796.00
2019-02-12T18:25:47.026Z,795.00
2019-02-12T18:26:48.531Z,796.00
2019-02-12T18:27:49.221Z,797.00
2019-02-12T18:28:49.249Z,797.00
2019-02-12T18:29:49.938Z,796.00
2019-02-12T18:30:50.760Z,798.00
2019-02-12T18:31:50.912Z,798.00
2019-02-12T18:32:51.512Z,797.00
2019-02-12T18:33:23.558Z,798.00
2019-02-12T18:34:03.448Z,798.00
2019-02-12T18:35:04.222Z,797.00
2019-02-12T18:36:06.021Z,798.00
2019-02-12T18:37:05.760Z,796.00
2019-02-12T18:38:07.483Z,795.00
2019-02-12T18:39:07.603Z,794.00
2019-02-12T18:40:07.067Z,796.00
2019-02-12T18:41:08.945Z,795.00
2019-02-12T18:42:09.614Z,796.00
2019-02-12T18:43:10.406Z,796.00
2019-02-12T18:44:10.531Z,796.00
2019-02-12T18:45:10.617Z,797.00
2019-02-12T18:46:10.553Z,797.00
2019-02-12T18:47:11.652Z,796.00
2019-02-12T18:48:11.669Z,795.00
2019-02-12T18:49:19.905Z,796.00
2019-02-12T18:50:12.308Z,796.00
2019-02-12T18:51:12.819Z,795.00
2019-02-12T18:52:14.004Z,795.00
2019-02-12T18:53:14.405Z,797.00
2019-02-12T18:54:14.206Z,797.00
2019-02-12T18:55:14.985Z,798.00
2019-02-12T18:56:16.990Z,798.00
2019-02-12T18:57:16.226Z,796.00
2019-02-12T18:58:17.962Z,795.00
2019-02-12T18:59:18.625Z,796.00
2019-02-12T19:00:18.960Z,797.00
2019-02-12T19:01:18.090Z,796.00
2019-02-12T19:02:19.829Z,796.00
2019-02-12T19:03:20.777Z,796.00
2019-02-12T19:04:21.407Z,795.00
2019-02-12T19:05:21.686Z,795.00
2019-02-12T19:06:22.488Z,795.00
2019-02-12T19:07:30.341Z,795.00
2019-02-12T19:08:22.313Z,794.00
2019-02-12T19:09:23.459Z,793.00
2019-02-12T19:10:25.104Z,793.00
2019-02-12T19:11:23.496Z,793.00
2019-02-12T19:12:24.531Z,793.00
2019-02-12T19:13:25.463Z,793.00
2019-02-12T19:14:26.337Z,793.00
2019-02-12T19:15:27.199Z,790.00
2019-02-12T19:16:27.745Z,794.00
2019-02-12T19:17:28.145Z,792.00
2019-02-12T19:18:27.513Z,794.00
2019-02-12T19:19:29.545Z,793.00
2019-02-12T19:20:28.624Z,793.00
2019-02-12T19:21:30.132Z,793.00
2019-02-12T19:22:33.344Z,793.00
2019-02-12T19:23:30.432Z,793.00
2019-02-12T19:24:31.923Z,793.00
2019-02-12T19:25:32.536Z,793.00
2019-02-12T19:26:33.425Z,795.00
2019-02-12T19:27:34.122Z,793.00
2019-02-12T19:28:34.734Z,794.00
2019-02-12T19:29:35.565Z,795.00
2019-02-12T19:30:36.055Z,797.00
2019-02-12T19:30:55.814Z,796.00
2019-02-12T19:31:59.163Z,797.00
2019-02-12T19:32:53.749Z,796.00
2019-02-12T19:33:54.010Z,794.00
2019-02-12T19:34:54.237Z,794.00
2019-02-12T19:35:55.853Z,796.00
2019-02-12T19:36:56.399Z,797.00
2019-02-12T19:37:55.775Z,796.00
2019-02-12T19:38:57.683Z,796.00
2019-02-12T19:39:58.200Z,796.00
2019-02-12T19:41:00.413Z,797.00
2019-02-12T19:41:58.613Z,796.00
2019-02-12T19:43:06.946Z,796.00
2019-02-12T19:43:59.703Z,798.00
2019-02-12T19:44:59.667Z,797.00
2019-02-12T19:46:00.334Z,798.00
2019-02-12T19:47:01.309Z,800.00
2019-02-12T19:48:02.164Z,798.00
2019-02-12T19:49:02.322Z,798.00
2019-02-12T19:50:02.717Z,797.00
2019-02-12T19:51:05.431Z,799.00
2019-02-12T19:52:03.566Z,799.00
2019-02-12T19:53:03.566Z,797.00
2019-02-12T19:54:04.273Z,798.00
2019-02-12T19:55:04.895Z,798.00
2019-02-12T19:56:05.495Z,797.00
2019-02-12T19:57:06.184Z,798.00
2019-02-12T19:58:06.995Z,797.00
2019-02-12T19:59:11.551Z,797.00
2019-02-12T20:00:08.504Z,797.00
2019-02-12T20:01:08.731Z,797.00
2019-02-12T20:02:09.096Z,797.00
2019-02-12T20:03:09.419Z,797.00
2019-02-12T20:04:09.542Z,796.00
2019-02-12T20:05:10.245Z,796.00
2019-02-12T20:06:10.168Z,797.00
2019-02-12T20:07:10.568Z,796.00
2019-02-12T20:08:14.263Z,797.00
2019-02-12T20:09:11.835Z,797.00
2019-02-12T20:10:12.399Z,798.00
2019-02-12T20:11:12.665Z,797.00
2019-02-12T20:12:13.645Z,798.00
2019-02-12T20:13:13.817Z,798.00
2019-02-12T20:14:14.879Z,797.00
2019-02-12T20:15:15.370Z,798.00
2019-02-12T20:16:15.275Z,798.00
2019-02-12T20:17:16.031Z,798.00
2019-02-12T20:18:16.996Z,800.00
2019-02-12T20:19:17.111Z,797.00
2019-02-12T20:20:17.409Z,798.00
2019-02-12T20:21:20.890Z,797.00
2019-02-12T20:22:18.586Z,797.00
2019-02-12T20:23:21.432Z,797.00
2019-02-12T20:24:19.206Z,796.00
2019-02-12T20:25:19.365Z,800.00
2019-02-12T20:26:20.014Z,798.00
2019-02-12T20:27:22.964Z,798.00
2019-02-12T20:28:28.569Z,797.00
2019-02-12T20:29:22.006Z,799.00
2019-02-12T20:30:22.236Z,798.00
2019-02-12T20:31:26.234Z,800.00
2019-02-12T20:32:23.515Z,800.00
2019-02-12T20:33:23.609Z,802.00
2019-02-12T20:34:23.971Z,801.00
2019-02-12T20:35:42.097Z,802.00
2019-02-12T20:36:25.248Z,804.00
2019-02-12T20:37:25.739Z,802.00
2019-02-12T20:38:25.739Z,802.00
2019-02-12T20:39:26.344Z,802.00
2019-02-12T20:40:27.142Z,802.00
2019-02-12T20:41:27.342Z,802.00
2019-02-12T20:43:28.193Z,802.00
2019-02-12T20:44:28.595Z,800.00
2019-02-12T20:45:29.509Z,800.00
2019-02-12T20:46:29.616Z,800.00
2019-02-12T20:47:30.722Z,800.00
2019-02-12T20:48:30.152Z,800.00
2019-02-12T20:49:31.062Z,801.00
2019-02-12T20:50:31.387Z,801.00
2019-02-12T20:51:32.048Z,802.00
2019-02-12T20:52:32.771Z,802.00
2019-02-12T20:53:33.183Z,800.00
2019-02-12T20:54:33.359Z,800.00
2019-02-12T20:55:36.337Z,801.00
2019-02-12T20:56:34.388Z,801.00
2019-02-12T20:57:36.850Z,802.00
2019-02-12T20:58:35.102Z,801.00
2019-02-12T20:59:35.262Z,804.00
2019-02-12T21:00:35.424Z,802.00
2019-02-12T21:01:36.202Z,802.00
2019-02-12T21:02:36.235Z,802.00
2019-02-12T21:03:37.904Z,805.00
2019-02-12T21:04:37.380Z,805.00
2019-02-12T21:05:37.708Z,805.00
2019-02-12T21:06:40.856Z,805.00
2019-02-12T21:07:39.072Z,802.00
2019-02-12T21:08:39.538Z,804.00
2019-02-12T21:09:40.166Z,805.00
2019-02-12T21:10:43.283Z,805.00
2019-02-12T21:11:41.203Z,805.00
2019-02-12T21:12:42.352Z,804.00
2019-02-12T21:14:03.161Z,805.00
2019-02-12T21:15:00.483Z,802.00
2019-02-12T21:16:00.701Z,802.00
2019-02-12T21:17:03.753Z,802.00
2019-02-12T21:18:04.401Z,805.00
2019-02-12T21:19:05.514Z,805.00
2019-02-12T21:20:05.612Z,805.00
2019-02-12T21:21:03.680Z,802.00
2019-02-12T21:22:05.249Z,805.00
2019-02-12T21:23:04.994Z,802.00
2019-02-12T21:24:05.705Z,802.00
2019-02-12T21:25:05.744Z,804.00
2019-02-12T21:26:06.525Z,802.00
2019-02-12T21:27:06.764Z,802.00
2019-02-12T21:28:07.115Z,804.00
2019-02-12T21:29:07.637Z,804.00
2019-02-12T21:30:08.489Z,802.00
2019-02-12T21:31:08.454Z,802.00
2019-02-12T21:32:09.764Z,801.00
2019-02-12T21:33:08.973Z,802.00
2019-02-12T21:34:09.257Z,802.00
2019-02-12T21:35:17.952Z,806.00
2019-02-12T21:36:27.952Z,805.00
2019-02-12T21:37:13.595Z,805.00
2019-02-12T21:38:12.966Z,802.00
2019-02-12T21:39:12.476Z,805.00
2019-02-12T21:40:12.252Z,802.00
2019-02-12T21:42:06.608Z,804.00
2019-02-12T21:42:13.686Z,804.00
2019-02-12T21:43:23.017Z,804.00
2019-02-12T21:44:14.413Z,804.00
2019-02-12T21:45:15.760Z,801.00
2019-02-12T21:46:15.223Z,801.00
2019-02-12T21:48:05.785Z,802.00
2019-02-12T21:49:09.125Z,805.00
2019-02-12T21:50:11.722Z,806.00
2019-02-12T21:51:07.450Z,802.00
2019-02-12T21:52:07.744Z,801.00
2019-02-12T21:53:07.891Z,806.00
2019-02-12T21:54:08.051Z,804.00
2019-02-12T21:55:09.543Z,805.00
2019-02-12T21:56:17.803Z,804.00
2019-02-12T21:57:09.579Z,805.00
2019-02-12T21:58:10.243Z,805.00
2019-02-12T21:59:11.092Z,805.00
2019-02-12T22:00:11.696Z,805.00
2019-02-12T22:01:12.095Z,806.00
2019-02-12T22:02:17.076Z,806.00
2019-02-12T22:03:15.974Z,806.00
2019-02-12T22:04:16.590Z,804.00
2019-02-12T22:05:15.556Z,802.00
2019-02-12T22:06:15.307Z,802.00
2019-02-12T22:07:15.823Z,802.00
2019-02-12T22:08:16.055Z,802.00
2019-02-12T22:09:16.125Z,804.00
2019-02-12T22:10:16.320Z,804.00
2019-02-12T22:11:18.215Z,805.00
2019-02-12T22:12:17.342Z,802.00
2019-02-12T22:13:17.402Z,804.00
2019-02-12T22:14:18.178Z,802.00
2019-02-12T22:15:18.308Z,802.00
2019-02-12T22:16:18.850Z,805.00
2019-02-12T22:17:19.263Z,802.00
2019-02-12T22:18:19.721Z,804.00
2019-02-12T22:19:26.891Z,805.00
2019-02-12T22:20:19.664Z,805.00
2019-02-12T22:21:28.632Z,804.00
2019-02-12T22:22:22.007Z,804.00
2019-02-12T22:23:21.087Z,805.00
2019-02-12T22:24:22.200Z,804.00
2019-02-12T22:25:22.494Z,804.00
2019-02-12T22:26:33.963Z,806.00
2019-02-12T22:27:22.755Z,806.00
2019-02-12T22:28:22.760Z,805.00
2019-02-12T22:29:25.381Z,806.00
2019-02-12T22:30:23.205Z,805.00
2019-02-12T22:31:23.373Z,805.00
2019-02-12T22:32:24.716Z,804.00
2019-02-12T22:33:23.796Z,802.00
2019-02-12T22:34:24.387Z,801.00
2019-02-12T22:35:25.179Z,802.00
2019-02-12T22:36:26.383Z,801.00
2019-02-12T22:37:26.965Z,802.00
2019-02-12T22:38:27.733Z,802.00
2019-02-12T22:39:28.477Z,800.00
2019-02-12T22:40:28.905Z,801.00
2019-02-12T22:41:29.731Z,799.00
2019-02-12T22:42:30.381Z,802.00
2019-02-12T22:42:47.030Z,802.00
2019-02-12T22:43:47.513Z,801.00
2019-02-12T22:44:48.107Z,801.00
2019-02-12T22:45:48.499Z,800.00
2019-02-12T22:46:50.343Z,802.00
2019-02-12T22:47:50.627Z,802.00
2019-02-12T22:48:50.490Z,801.00
2019-02-12T22:49:50.922Z,801.00
2019-02-12T22:50:50.953Z,801.00
2019-02-12T22:51:51.247Z,801.00
2019-02-12T22:52:52.260Z,801.00
2019-02-12T22:53:52.090Z,801.00
2019-02-12T22:54:59.561Z,802.00
2019-02-12T22:55:55.497Z,804.00
2019-02-12T22:56:53.248Z,804.00
2019-02-12T22:57:56.847Z,806.00
2019-02-12T22:58:56.610Z,805.00
2019-02-12T22:59:55.003Z,802.00
2019-02-12T23:00:56.312Z,805.00
2019-02-12T23:01:55.589Z,800.00
2019-02-12T23:02:56.935Z,801.00
2019-02-12T23:03:56.473Z,801.00
2019-02-12T23:04:56.772Z,800.00
2019-02-12T23:05:58.401Z,800.00
2019-02-12T23:07:01.188Z,800.00
2019-02-12T23:07:57.701Z,800.00
2019-02-12T23:08:59.250Z,800.00
2019-02-12T23:10:00.237Z,800.00
2019-02-12T23:10:59.449Z,799.00
2019-02-12T23:12:00.596Z,800.00
2019-02-12T23:12:59.677Z,799.00
2019-02-12T23:13:59.903Z,800.00
2019-02-12T23:15:01.443Z,799.00
2019-02-12T23:16:03.278Z,800.00
2019-02-12T23:17:03.572Z,802.00
2019-02-12T23:18:02.333Z,800.00
2019-02-12T23:19:02.482Z,800.00
2019-02-12T23:20:03.602Z,801.00
2019-02-12T23:21:03.208Z,800.00
2019-02-12T23:22:07.205Z,800.00
2019-02-12T23:23:04.487Z,800.00
2019-02-12T23:24:06.436Z,798.00
2019-02-12T23:25:07.108Z,800.00
2019-02-12T23:26:06.710Z,800.00
2019-02-12T23:27:11.002Z,800.00
2019-02-12T23:28:08.445Z,800.00
2019-02-12T23:29:09.134Z,801.00
2019-02-12T23:30:10.029Z,800.00
2019-02-12T23:31:11.958Z,800.00
2019-02-12T23:32:12.601Z,801.00
2019-02-12T23:33:13.252Z,800.00
2019-02-12T23:34:13.878Z,800.00
2019-02-12T23:35:12.843Z,800.00
2019-02-12T23:36:14.622Z,801.00
2019-02-12T23:37:17.041Z,801.00
2019-02-12T23:38:16.866Z,801.00
2019-02-12T23:39:14.866Z,801.00
2019-02-12T23:40:16.432Z,801.00
2019-02-12T23:41:16.897Z,802.00
2019-02-12T23:42:17.716Z,802.00
2019-02-12T23:43:18.497Z,802.00
2019-02-12T23:44:21.495Z,801.00
2019-02-12T23:45:18.470Z,800.00
2019-02-12T23:46:20.320Z,802.00
2019-02-12T23:47:20.881Z,801.00
2019-02-12T23:48:20.975Z,800.00
2019-02-12T23:49:21.082Z,799.00
2019-02-12T23:50:20.325Z,798.00
2019-02-12T23:51:22.257Z,798.00
2019-02-12T23:52:22.973Z,797.00
2019-02-12T23:53:22.871Z,796.00
2019-02-12T23:53:33.499Z,796.00
2019-02-12T23:54:34.061Z,797.00
2019-02-12T23:55:35.715Z,797.00
2019-02-12T23:56:36.327Z,797.00
2019-02-12T23:57:37.047Z,795.00
2019-02-12T23:58:37.469Z,796.00
2019-02-12T23:59:38.254Z,796.00
